sensor_id;sensor_type;location;lat;lon;timestamp;P1;durP1;ratioP1;P2;durP2;ratioP2
7432;SDS011;32233;49.500;7.764;2023-12-28T00:01:46;5.80;;;3.57;;
7432;SDS011;32233;49.500;7.764;2023-12-28T00:04:12;4.13;;;3.50;;
7432;SDS011;32233;49.500;7.764;2023-12-28T00:06:39;7.13;;;3.70;;
7432;SDS011;32233;49.500;7.764;2023-12-28T00:09:07;7.67;;;3.87;;
7432;SDS011;32233;49.500;7.764;2023-12-28T00:11:37;6.60;;;4.07;;
7432;SDS011;32233;49.500;7.764;2023-12-28T00:14:04;7.40;;;3.80;;
7432;SDS011;32233;49.500;7.764;2023-12-28T00:16:31;4.73;;;3.60;;
7432;SDS011;32233;49.500;7.764;2023-12-28T00:19:03;7.37;;;3.83;;
7432;SDS011;32233;49.500;7.764;2023-12-28T00:21:31;4.30;;;3.87;;
7432;SDS011;32233;49.500;7.764;2023-12-28T00:23:57;8.23;;;4.63;;
7432;SDS011;32233;49.500;7.764;2023-12-28T00:26:24;4.63;;;3.97;;
7432;SDS011;32233;49.500;7.764;2023-12-28T00:29:01;5.57;;;4.47;;
7432;SDS011;32233;49.500;7.764;2023-12-28T00:31:27;5.80;;;3.77;;
7432;SDS011;32233;49.500;7.764;2023-12-28T00:33:54;7.10;;;4.70;;
7432;SDS011;32233;49.500;7.764;2023-12-28T00:36:22;7.70;;;4.23;;
7432;SDS011;32233;49.500;7.764;2023-12-28T00:38:49;4.70;;;3.80;;
7432;SDS011;32233;49.500;7.764;2023-12-28T00:41:16;6.17;;;3.93;;
7432;SDS011;32233;49.500;7.764;2023-12-28T00:43:42;7.87;;;4.13;;
7432;SDS011;32233;49.500;7.764;2023-12-28T00:46:09;6.53;;;4.27;;
7432;SDS011;32233;49.500;7.764;2023-12-28T00:48:36;6.33;;;4.03;;
7432;SDS011;32233;49.500;7.764;2023-12-28T00:51:03;4.77;;;3.70;;
7432;SDS011;32233;49.500;7.764;2023-12-28T00:53:29;7.83;;;4.00;;
7432;SDS011;32233;49.500;7.764;2023-12-28T00:55:56;6.10;;;3.97;;
7432;SDS011;32233;49.500;7.764;2023-12-28T00:58:22;6.67;;;3.53;;
7432;SDS011;32233;49.500;7.764;2023-12-28T01:00:49;6.87;;;3.87;;
7432;SDS011;32233;49.500;7.764;2023-12-28T01:03:19;5.10;;;3.57;;
7432;SDS011;32233;49.500;7.764;2023-12-28T01:05:46;9.23;;;3.87;;
7432;SDS011;32233;49.500;7.764;2023-12-28T01:08:16;4.47;;;3.70;;
7432;SDS011;32233;49.500;7.764;2023-12-28T01:10:44;4.07;;;3.50;;
7432;SDS011;32233;49.500;7.764;2023-12-28T01:13:10;7.50;;;3.70;;
7432;SDS011;32233;49.500;7.764;2023-12-28T01:15:37;3.97;;;3.20;;
7432;SDS011;32233;49.500;7.764;2023-12-28T01:18:04;4.37;;;3.70;;
7432;SDS011;32233;49.500;7.764;2023-12-28T01:20:30;5.53;;;3.60;;
7432;SDS011;32233;49.500;7.764;2023-12-28T01:22:57;4.60;;;3.63;;
7432;SDS011;32233;49.500;7.764;2023-12-28T01:25:24;4.33;;;3.70;;
7432;SDS011;32233;49.500;7.764;2023-12-28T01:27:50;5.73;;;3.80;;
7432;SDS011;32233;49.500;7.764;2023-12-28T01:30:17;5.13;;;4.13;;
7432;SDS011;32233;49.500;7.764;2023-12-28T01:32:44;4.73;;;3.30;;
7432;SDS011;32233;49.500;7.764;2023-12-28T01:35:10;4.70;;;3.57;;
7432;SDS011;32233;49.500;7.764;2023-12-28T01:37:38;3.83;;;3.53;;
7432;SDS011;32233;49.500;7.764;2023-12-28T01:40:05;5.10;;;3.30;;
7432;SDS011;32233;49.500;7.764;2023-12-28T01:42:32;3.83;;;3.17;;
7432;SDS011;32233;49.500;7.764;2023-12-28T01:44:59;4.17;;;3.17;;
7432;SDS011;32233;49.500;7.764;2023-12-28T01:47:26;4.00;;;3.10;;
7432;SDS011;32233;49.500;7.764;2023-12-28T01:49:54;3.10;;;2.70;;
7432;SDS011;32233;49.500;7.764;2023-12-28T01:52:21;3.97;;;2.97;;
7432;SDS011;32233;49.500;7.764;2023-12-28T01:54:49;5.00;;;3.00;;
7432;SDS011;32233;49.500;7.764;2023-12-28T01:57:17;3.33;;;3.03;;
7432;SDS011;32233;49.500;7.764;2023-12-28T01:59:44;7.57;;;3.47;;
7432;SDS011;32233;49.500;7.764;2023-12-28T02:02:11;3.77;;;3.30;;
7432;SDS011;32233;49.500;7.764;2023-12-28T02:04:39;4.77;;;3.23;;
7432;SDS011;32233;49.500;7.764;2023-12-28T02:07:06;4.73;;;3.40;;
7432;SDS011;32233;49.500;7.764;2023-12-28T02:09:34;3.90;;;3.43;;
7432;SDS011;32233;49.500;7.764;2023-12-28T02:12:00;5.87;;;3.70;;
7432;SDS011;32233;49.500;7.764;2023-12-28T02:14:27;6.37;;;3.50;;
7432;SDS011;32233;49.500;7.764;2023-12-28T02:16:56;5.90;;;3.40;;
7432;SDS011;32233;49.500;7.764;2023-12-28T02:22:19;3.90;;;3.50;;
7432;SDS011;32233;49.500;7.764;2023-12-28T02:27:36;5.80;;;3.43;;
7432;SDS011;32233;49.500;7.764;2023-12-28T02:30:08;4.20;;;3.20;;
7432;SDS011;32233;49.500;7.764;2023-12-28T02:32:39;6.17;;;3.70;;
7432;SDS011;32233;49.500;7.764;2023-12-28T02:38:08;3.43;;;3.13;;
7432;SDS011;32233;49.500;7.764;2023-12-28T02:40:37;7.07;;;3.57;;
7432;SDS011;32233;49.500;7.764;2023-12-28T02:43:05;4.17;;;3.60;;
7432;SDS011;32233;49.500;7.764;2023-12-28T02:45:33;4.73;;;3.73;;
7432;SDS011;32233;49.500;7.764;2023-12-28T02:48:00;6.73;;;4.37;;
7432;SDS011;32233;49.500;7.764;2023-12-28T02:50:28;5.53;;;3.73;;
7432;SDS011;32233;49.500;7.764;2023-12-28T02:52:58;4.70;;;3.80;;
7432;SDS011;32233;49.500;7.764;2023-12-28T02:55:25;6.70;;;3.80;;
7432;SDS011;32233;49.500;7.764;2023-12-28T02:57:54;4.97;;;4.07;;
7432;SDS011;32233;49.500;7.764;2023-12-28T03:00:22;6.00;;;4.27;;
7432;SDS011;32233;49.500;7.764;2023-12-28T03:02:49;7.00;;;3.90;;
7432;SDS011;32233;49.500;7.764;2023-12-28T03:05:16;5.90;;;4.00;;
7432;SDS011;32233;49.500;7.764;2023-12-28T03:07:43;5.63;;;3.80;;
7432;SDS011;32233;49.500;7.764;2023-12-28T03:10:11;4.40;;;4.00;;
7432;SDS011;32233;49.500;7.764;2023-12-28T03:12:40;5.93;;;3.83;;
7432;SDS011;32233;49.500;7.764;2023-12-28T03:15:07;4.90;;;4.20;;
7432;SDS011;32233;49.500;7.764;2023-12-28T03:17:34;6.67;;;3.77;;
7432;SDS011;32233;49.500;7.764;2023-12-28T03:20:03;6.23;;;4.10;;
7432;SDS011;32233;49.500;7.764;2023-12-28T03:22:30;5.13;;;3.90;;
7432;SDS011;32233;49.500;7.764;2023-12-28T03:24:56;7.30;;;4.03;;
7432;SDS011;32233;49.500;7.764;2023-12-28T03:27:23;7.60;;;4.23;;
7432;SDS011;32233;49.500;7.764;2023-12-28T03:29:50;5.70;;;3.90;;
7432;SDS011;32233;49.500;7.764;2023-12-28T03:32:16;6.17;;;3.90;;
7432;SDS011;32233;49.500;7.764;2023-12-28T03:34:43;9.60;;;4.37;;
7432;SDS011;32233;49.500;7.764;2023-12-28T03:37:10;5.83;;;3.97;;
7432;SDS011;32233;49.500;7.764;2023-12-28T03:39:37;4.40;;;3.80;;
7432;SDS011;32233;49.500;7.764;2023-12-28T03:42:04;5.57;;;3.83;;
7432;SDS011;32233;49.500;7.764;2023-12-28T03:44:31;7.33;;;4.27;;
7432;SDS011;32233;49.500;7.764;2023-12-28T03:46:57;6.07;;;4.30;;
7432;SDS011;32233;49.500;7.764;2023-12-28T03:49:24;6.20;;;4.10;;
7432;SDS011;32233;49.500;7.764;2023-12-28T03:51:52;5.07;;;3.90;;
7432;SDS011;32233;49.500;7.764;2023-12-28T03:54:19;6.93;;;4.07;;
7432;SDS011;32233;49.500;7.764;2023-12-28T03:56:46;4.03;;;3.70;;
7432;SDS011;32233;49.500;7.764;2023-12-28T03:59:13;5.63;;;3.93;;
7432;SDS011;32233;49.500;7.764;2023-12-28T04:01:43;6.07;;;4.10;;
7432;SDS011;32233;49.500;7.764;2023-12-28T04:04:10;8.00;;;4.00;;
7432;SDS011;32233;49.500;7.764;2023-12-28T04:06:37;7.13;;;4.63;;
7432;SDS011;32233;49.500;7.764;2023-12-28T04:09:05;5.97;;;3.93;;
7432;SDS011;32233;49.500;7.764;2023-12-28T04:11:31;6.07;;;4.33;;
7432;SDS011;32233;49.500;7.764;2023-12-28T04:13:58;6.23;;;4.23;;
7432;SDS011;32233;49.500;7.764;2023-12-28T04:16:25;5.23;;;3.87;;
7432;SDS011;32233;49.500;7.764;2023-12-28T04:18:51;4.63;;;3.80;;
7432;SDS011;32233;49.500;7.764;2023-12-28T04:21:18;6.00;;;4.03;;
7432;SDS011;32233;49.500;7.764;2023-12-28T04:23:45;5.50;;;4.10;;
7432;SDS011;32233;49.500;7.764;2023-12-28T04:26:12;4.53;;;3.90;;
7432;SDS011;32233;49.500;7.764;2023-12-28T04:28:39;4.53;;;3.63;;
7432;SDS011;32233;49.500;7.764;2023-12-28T04:31:06;4.30;;;3.90;;
7432;SDS011;32233;49.500;7.764;2023-12-28T04:33:33;6.07;;;3.87;;
7432;SDS011;32233;49.500;7.764;2023-12-28T04:36:01;5.77;;;4.00;;
7432;SDS011;32233;49.500;7.764;2023-12-28T04:38:32;4.97;;;3.90;;
7432;SDS011;32233;49.500;7.764;2023-12-28T04:40:59;5.10;;;3.63;;
7432;SDS011;32233;49.500;7.764;2023-12-28T04:43:27;5.80;;;3.93;;
7432;SDS011;32233;49.500;7.764;2023-12-28T04:45:54;3.97;;;3.33;;
7432;SDS011;32233;49.500;7.764;2023-12-28T04:48:21;4.93;;;3.70;;
7432;SDS011;32233;49.500;7.764;2023-12-28T04:50:50;7.83;;;3.80;;
7432;SDS011;32233;49.500;7.764;2023-12-28T04:53:17;4.17;;;3.57;;
7432;SDS011;32233;49.500;7.764;2023-12-28T04:55:44;4.47;;;3.47;;
7432;SDS011;32233;49.500;7.764;2023-12-28T04:58:10;4.07;;;3.67;;
7432;SDS011;32233;49.500;7.764;2023-12-28T05:00:38;3.70;;;3.40;;
7432;SDS011;32233;49.500;7.764;2023-12-28T05:03:07;3.63;;;2.83;;
7432;SDS011;32233;49.500;7.764;2023-12-28T05:05:35;5.17;;;2.90;;
7432;SDS011;32233;49.500;7.764;2023-12-28T05:08:01;4.60;;;3.43;;
7432;SDS011;32233;49.500;7.764;2023-12-28T05:10:28;4.53;;;3.03;;
7432;SDS011;32233;49.500;7.764;2023-12-28T05:12:55;3.27;;;2.73;;
7432;SDS011;32233;49.500;7.764;2023-12-28T05:15:27;4.50;;;3.13;;
7432;SDS011;32233;49.500;7.764;2023-12-28T05:17:54;3.33;;;2.80;;
7432;SDS011;32233;49.500;7.764;2023-12-28T05:20:22;5.17;;;3.33;;
7432;SDS011;32233;49.500;7.764;2023-12-28T05:22:48;3.73;;;3.00;;
7432;SDS011;32233;49.500;7.764;2023-12-28T05:25:15;3.70;;;3.27;;
7432;SDS011;32233;49.500;7.764;2023-12-28T05:27:45;4.37;;;3.60;;
7432;SDS011;32233;49.500;7.764;2023-12-28T05:30:11;4.17;;;3.50;;
7432;SDS011;32233;49.500;7.764;2023-12-28T05:32:39;5.77;;;3.33;;
7432;SDS011;32233;49.500;7.764;2023-12-28T05:35:06;4.00;;;3.50;;
7432;SDS011;32233;49.500;7.764;2023-12-28T05:37:33;3.77;;;3.43;;
7432;SDS011;32233;49.500;7.764;2023-12-28T05:40:00;3.90;;;3.37;;
7432;SDS011;32233;49.500;7.764;2023-12-28T05:42:27;3.63;;;3.10;;
7432;SDS011;32233;49.500;7.764;2023-12-28T05:44:53;3.90;;;3.50;;
7432;SDS011;32233;49.500;7.764;2023-12-28T05:47:20;4.90;;;3.87;;
7432;SDS011;32233;49.500;7.764;2023-12-28T05:49:47;6.17;;;3.73;;
7432;SDS011;32233;49.500;7.764;2023-12-28T05:52:14;5.23;;;4.00;;
7432;SDS011;32233;49.500;7.764;2023-12-28T05:54:42;6.13;;;4.23;;
7432;SDS011;32233;49.500;7.764;2023-12-28T05:57:10;6.37;;;4.03;;
7432;SDS011;32233;49.500;7.764;2023-12-28T05:59:37;5.83;;;4.50;;
7432;SDS011;32233;49.500;7.764;2023-12-28T06:02:05;5.83;;;3.90;;
7432;SDS011;32233;49.500;7.764;2023-12-28T06:04:33;6.37;;;4.30;;
7432;SDS011;32233;49.500;7.764;2023-12-28T06:07:04;5.17;;;3.90;;
7432;SDS011;32233;49.500;7.764;2023-12-28T06:09:32;7.77;;;4.07;;
7432;SDS011;32233;49.500;7.764;2023-12-28T06:11:59;5.37;;;3.70;;
7432;SDS011;32233;49.500;7.764;2023-12-28T06:14:26;4.97;;;4.00;;
7432;SDS011;32233;49.500;7.764;2023-12-28T06:16:53;8.23;;;4.10;;
7432;SDS011;32233;49.500;7.764;2023-12-28T06:19:20;5.80;;;4.03;;
7432;SDS011;32233;49.500;7.764;2023-12-28T06:21:47;5.27;;;3.73;;
7432;SDS011;32233;49.500;7.764;2023-12-28T06:24:14;8.17;;;4.10;;
7432;SDS011;32233;49.500;7.764;2023-12-28T06:26:44;5.33;;;4.10;;
7432;SDS011;32233;49.500;7.764;2023-12-28T06:29:14;6.23;;;3.87;;
7432;SDS011;32233;49.500;7.764;2023-12-28T06:31:41;7.67;;;3.97;;
7432;SDS011;32233;49.500;7.764;2023-12-28T06:34:08;4.67;;;3.90;;
7432;SDS011;32233;49.500;7.764;2023-12-28T06:36:35;5.37;;;4.40;;
7432;SDS011;32233;49.500;7.764;2023-12-28T06:39:02;4.53;;;4.13;;
7432;SDS011;32233;49.500;7.764;2023-12-28T06:41:29;4.20;;;3.57;;
7432;SDS011;32233;49.500;7.764;2023-12-28T06:43:55;6.50;;;4.00;;
7432;SDS011;32233;49.500;7.764;2023-12-28T06:46:22;4.60;;;3.80;;
7432;SDS011;32233;49.500;7.764;2023-12-28T06:48:49;5.23;;;4.10;;
7432;SDS011;32233;49.500;7.764;2023-12-28T06:51:19;4.90;;;4.27;;
7432;SDS011;32233;49.500;7.764;2023-12-28T06:53:47;7.17;;;3.97;;
7432;SDS011;32233;49.500;7.764;2023-12-28T06:56:16;4.37;;;3.47;;
7432;SDS011;32233;49.500;7.764;2023-12-28T06:58:43;3.70;;;3.40;;
7432;SDS011;32233;49.500;7.764;2023-12-28T07:01:10;5.07;;;3.50;;
7432;SDS011;32233;49.500;7.764;2023-12-28T07:03:38;4.57;;;3.83;;
7432;SDS011;32233;49.500;7.764;2023-12-28T07:06:07;4.40;;;3.60;;
7432;SDS011;32233;49.500;7.764;2023-12-28T07:08:34;6.20;;;3.90;;
7432;SDS011;32233;49.500;7.764;2023-12-28T07:11:02;6.07;;;3.57;;
7432;SDS011;32233;49.500;7.764;2023-12-28T07:13:30;5.00;;;3.40;;
7432;SDS011;32233;49.500;7.764;2023-12-28T07:15:57;6.63;;;3.83;;
7432;SDS011;32233;49.500;7.764;2023-12-28T07:18:26;5.17;;;3.80;;
7432;SDS011;32233;49.500;7.764;2023-12-28T07:20:53;7.53;;;3.60;;
7432;SDS011;32233;49.500;7.764;2023-12-28T07:23:20;4.70;;;3.67;;
7432;SDS011;32233;49.500;7.764;2023-12-28T07:25:48;5.57;;;3.27;;
7432;SDS011;32233;49.500;7.764;2023-12-28T07:28:14;8.10;;;4.03;;
7432;SDS011;32233;49.500;7.764;2023-12-28T07:30:41;6.77;;;3.87;;
7432;SDS011;32233;49.500;7.764;2023-12-28T07:33:08;4.83;;;3.27;;
7432;SDS011;32233;49.500;7.764;2023-12-28T07:35:35;3.73;;;3.03;;
7432;SDS011;32233;49.500;7.764;2023-12-28T07:38:02;5.37;;;3.60;;
7432;SDS011;32233;49.500;7.764;2023-12-28T07:40:28;3.80;;;3.40;;
7432;SDS011;32233;49.500;7.764;2023-12-28T07:42:55;4.87;;;3.23;;
7432;SDS011;32233;49.500;7.764;2023-12-28T07:45:23;5.23;;;3.33;;
7432;SDS011;32233;49.500;7.764;2023-12-28T07:47:53;3.57;;;3.03;;
7432;SDS011;32233;49.500;7.764;2023-12-28T07:50:23;5.13;;;3.30;;
7432;SDS011;32233;49.500;7.764;2023-12-28T07:52:50;4.73;;;3.40;;
7432;SDS011;32233;49.500;7.764;2023-12-28T07:55:17;4.23;;;3.50;;
7432;SDS011;32233;49.500;7.764;2023-12-28T07:57:44;4.63;;;3.47;;
7432;SDS011;32233;49.500;7.764;2023-12-28T08:00:11;4.10;;;3.80;;
7432;SDS011;32233;49.500;7.764;2023-12-28T08:02:38;4.40;;;3.70;;
7432;SDS011;32233;49.500;7.764;2023-12-28T08:05:05;5.33;;;3.80;;
7432;SDS011;32233;49.500;7.764;2023-12-28T08:07:32;4.23;;;3.60;;
7432;SDS011;32233;49.500;7.764;2023-12-28T08:10:00;5.03;;;3.63;;
7432;SDS011;32233;49.500;7.764;2023-12-28T08:12:27;7.50;;;4.20;;
7432;SDS011;32233;49.500;7.764;2023-12-28T08:14:55;5.73;;;3.73;;
7432;SDS011;32233;49.500;7.764;2023-12-28T08:17:22;6.23;;;3.83;;
7432;SDS011;32233;49.500;7.764;2023-12-28T08:19:49;6.43;;;3.60;;
7432;SDS011;32233;49.500;7.764;2023-12-28T08:22:16;7.13;;;3.70;;
7432;SDS011;32233;49.500;7.764;2023-12-28T08:24:42;4.10;;;3.70;;
7432;SDS011;32233;49.500;7.764;2023-12-28T08:27:09;7.20;;;3.83;;
7432;SDS011;32233;49.500;7.764;2023-12-28T08:29:36;3.77;;;3.43;;
7432;SDS011;32233;49.500;7.764;2023-12-28T08:32:03;5.40;;;3.73;;
7432;SDS011;32233;49.500;7.764;2023-12-28T08:34:30;5.73;;;3.60;;
7432;SDS011;32233;49.500;7.764;2023-12-28T08:37:01;3.83;;;3.40;;
7432;SDS011;32233;49.500;7.764;2023-12-28T08:39:27;4.27;;;3.20;;
7432;SDS011;32233;49.500;7.764;2023-12-28T08:41:57;6.63;;;3.77;;
7432;SDS011;32233;49.500;7.764;2023-12-28T08:44:24;3.63;;;3.23;;
7432;SDS011;32233;49.500;7.764;2023-12-28T08:46:50;6.53;;;3.70;;
7432;SDS011;32233;49.500;7.764;2023-12-28T08:49:17;6.93;;;3.63;;
7432;SDS011;32233;49.500;7.764;2023-12-28T08:51:44;4.10;;;3.70;;
7432;SDS011;32233;49.500;7.764;2023-12-28T08:54:11;6.40;;;3.80;;
7432;SDS011;32233;49.500;7.764;2023-12-28T08:56:37;6.77;;;6.00;;
7432;SDS011;32233;49.500;7.764;2023-12-28T08:59:04;9.03;;;5.97;;
7432;SDS011;32233;49.500;7.764;2023-12-28T09:01:31;10.43;;;6.23;;
7432;SDS011;32233;49.500;7.764;2023-12-28T09:03:58;7.00;;;5.20;;
7432;SDS011;32233;49.500;7.764;2023-12-28T09:06:25;7.17;;;4.20;;
7432;SDS011;32233;49.500;7.764;2023-12-28T09:08:52;4.67;;;4.17;;
7432;SDS011;32233;49.500;7.764;2023-12-28T09:11:20;8.17;;;3.77;;
7432;SDS011;32233;49.500;7.764;2023-12-28T09:13:47;4.93;;;4.10;;
7432;SDS011;32233;49.500;7.764;2023-12-28T09:16:14;8.33;;;4.40;;
7432;SDS011;32233;49.500;7.764;2023-12-28T09:18:42;5.03;;;4.03;;
7432;SDS011;32233;49.500;7.764;2023-12-28T09:21:09;4.93;;;4.10;;
7432;SDS011;32233;49.500;7.764;2023-12-28T09:23:37;5.20;;;4.37;;
7432;SDS011;32233;49.500;7.764;2023-12-28T09:26:04;5.60;;;4.47;;
7432;SDS011;32233;49.500;7.764;2023-12-28T09:28:31;7.67;;;4.20;;
7432;SDS011;32233;49.500;7.764;2023-12-28T09:30:59;8.10;;;4.13;;
7432;SDS011;32233;49.500;7.764;2023-12-28T09:33:27;4.53;;;4.03;;
7432;SDS011;32233;49.500;7.764;2023-12-28T09:35:53;5.47;;;3.77;;
7432;SDS011;32233;49.500;7.764;2023-12-28T09:38:20;6.07;;;3.90;;
7432;SDS011;32233;49.500;7.764;2023-12-28T09:40:48;4.80;;;3.90;;
7432;SDS011;32233;49.500;7.764;2023-12-28T09:43:21;4.97;;;3.30;;
7432;SDS011;32233;49.500;7.764;2023-12-28T09:45:50;5.47;;;3.73;;
7432;SDS011;32233;49.500;7.764;2023-12-28T09:48:19;6.33;;;3.50;;
7432;SDS011;32233;49.500;7.764;2023-12-28T09:50:50;3.40;;;3.10;;
7432;SDS011;32233;49.500;7.764;2023-12-28T09:53:24;5.53;;;3.57;;
7432;SDS011;32233;49.500;7.764;2023-12-28T09:55:54;3.93;;;3.50;;
7432;SDS011;32233;49.500;7.764;2023-12-28T09:58:23;4.33;;;3.60;;
7432;SDS011;32233;49.500;7.764;2023-12-28T10:00:50;3.77;;;3.23;;
7432;SDS011;32233;49.500;7.764;2023-12-28T10:03:17;6.07;;;3.33;;
7432;SDS011;32233;49.500;7.764;2023-12-28T10:05:45;6.77;;;3.90;;
7432;SDS011;32233;49.500;7.764;2023-12-28T10:08:14;4.30;;;3.70;;
7432;SDS011;32233;49.500;7.764;2023-12-28T10:10:41;7.00;;;3.57;;
7432;SDS011;32233;49.500;7.764;2023-12-28T10:13:10;4.90;;;3.70;;
7432;SDS011;32233;49.500;7.764;2023-12-28T10:15:37;5.73;;;3.40;;
7432;SDS011;32233;49.500;7.764;2023-12-28T10:18:05;4.90;;;3.83;;
7432;SDS011;32233;49.500;7.764;2023-12-28T10:20:33;7.43;;;3.80;;
7432;SDS011;32233;49.500;7.764;2023-12-28T10:22:59;5.50;;;3.70;;
7432;SDS011;32233;49.500;7.764;2023-12-28T10:25:28;5.97;;;3.50;;
7432;SDS011;32233;49.500;7.764;2023-12-28T10:27:56;4.80;;;3.70;;
7432;SDS011;32233;49.500;7.764;2023-12-28T10:30:23;5.70;;;3.50;;
7432;SDS011;32233;49.500;7.764;2023-12-28T10:32:50;4.10;;;3.37;;
7432;SDS011;32233;49.500;7.764;2023-12-28T10:35:17;5.70;;;3.90;;
7432;SDS011;32233;49.500;7.764;2023-12-28T10:37:44;6.70;;;3.97;;
7432;SDS011;32233;49.500;7.764;2023-12-28T10:40:12;5.17;;;3.90;;
7432;SDS011;32233;49.500;7.764;2023-12-28T10:42:51;5.50;;;4.30;;
7432;SDS011;32233;49.500;7.764;2023-12-28T10:45:26;4.20;;;3.73;;
7432;SDS011;32233;49.500;7.764;2023-12-28T10:48:07;6.33;;;3.97;;
7432;SDS011;32233;49.500;7.764;2023-12-28T10:50:50;6.23;;;4.00;;
7432;SDS011;32233;49.500;7.764;2023-12-28T10:53:21;5.97;;;4.23;;
7432;SDS011;32233;49.500;7.764;2023-12-28T11:01:46;5.07;;;4.17;;
7432;SDS011;32233;49.500;7.764;2023-12-28T11:06:48;4.87;;;3.60;;
7432;SDS011;32233;49.500;7.764;2023-12-28T11:09:16;4.70;;;3.80;;
7432;SDS011;32233;49.500;7.764;2023-12-28T11:11:43;3.93;;;3.53;;
7432;SDS011;32233;49.500;7.764;2023-12-28T11:14:10;4.20;;;3.60;;
7432;SDS011;32233;49.500;7.764;2023-12-28T11:16:37;5.10;;;3.10;;
7432;SDS011;32233;49.500;7.764;2023-12-28T11:19:05;3.90;;;3.30;;
7432;SDS011;32233;49.500;7.764;2023-12-28T11:21:33;5.80;;;3.10;;
7432;SDS011;32233;49.500;7.764;2023-12-28T11:24:00;4.50;;;2.73;;
7432;SDS011;32233;49.500;7.764;2023-12-28T11:26:27;4.27;;;2.73;;
7432;SDS011;32233;49.500;7.764;2023-12-28T11:29:01;3.27;;;2.80;;
7432;SDS011;32233;49.500;7.764;2023-12-28T11:31:28;5.63;;;2.87;;
7432;SDS011;32233;49.500;7.764;2023-12-28T11:34:00;5.03;;;2.97;;
7432;SDS011;32233;49.500;7.764;2023-12-28T11:36:34;4.97;;;3.23;;
7432;SDS011;32233;49.500;7.764;2023-12-28T11:39:03;4.90;;;3.00;;
7432;SDS011;32233;49.500;7.764;2023-12-28T11:41:32;3.23;;;2.93;;
7432;SDS011;32233;49.500;7.764;2023-12-28T11:44:03;3.53;;;2.73;;
7432;SDS011;32233;49.500;7.764;2023-12-28T11:46:34;3.13;;;2.60;;
7432;SDS011;32233;49.500;7.764;2023-12-28T11:49:06;4.33;;;2.60;;
7432;SDS011;32233;49.500;7.764;2023-12-28T11:51:35;3.63;;;2.53;;
7432;SDS011;32233;49.500;7.764;2023-12-28T11:54:04;3.17;;;2.33;;
7432;SDS011;32233;49.500;7.764;2023-12-28T11:56:31;4.73;;;2.70;;
7432;SDS011;32233;49.500;7.764;2023-12-28T11:58:59;2.70;;;2.50;;
7432;SDS011;32233;49.500;7.764;2023-12-28T12:01:25;4.83;;;2.90;;
7432;SDS011;32233;49.500;7.764;2023-12-28T12:03:53;3.60;;;3.03;;
7432;SDS011;32233;49.500;7.764;2023-12-28T12:06:20;4.33;;;3.80;;
7432;SDS011;32233;49.500;7.764;2023-12-28T12:08:47;2.90;;;2.60;;
7432;SDS011;32233;49.500;7.764;2023-12-28T12:11:14;4.10;;;2.70;;
7432;SDS011;32233;49.500;7.764;2023-12-28T12:13:40;3.27;;;2.77;;
7432;SDS011;32233;49.500;7.764;2023-12-28T12:16:07;3.00;;;2.50;;
7432;SDS011;32233;49.500;7.764;2023-12-28T12:18:34;3.63;;;2.10;;
7432;SDS011;32233;49.500;7.764;2023-12-28T12:21:02;2.30;;;2.10;;
7432;SDS011;32233;49.500;7.764;2023-12-28T12:23:29;2.20;;;2.00;;
7432;SDS011;32233;49.500;7.764;2023-12-28T12:25:56;2.63;;;2.40;;
7432;SDS011;32233;49.500;7.764;2023-12-28T12:28:22;2.83;;;2.47;;
7432;SDS011;32233;49.500;7.764;2023-12-28T12:30:55;2.70;;;2.50;;
7432;SDS011;32233;49.500;7.764;2023-12-28T12:33:23;2.43;;;2.23;;
7432;SDS011;32233;49.500;7.764;2023-12-28T12:35:52;2.40;;;2.20;;
7432;SDS011;32233;49.500;7.764;2023-12-28T12:38:19;2.50;;;2.30;;
7432;SDS011;32233;49.500;7.764;2023-12-28T12:40:45;1.97;;;1.83;;
7432;SDS011;32233;49.500;7.764;2023-12-28T12:43:12;2.10;;;1.90;;
7432;SDS011;32233;49.500;7.764;2023-12-28T12:45:39;3.50;;;2.20;;
7432;SDS011;32233;49.500;7.764;2023-12-28T12:48:05;2.77;;;2.57;;
7432;SDS011;32233;49.500;7.764;2023-12-28T12:50:32;1.80;;;1.70;;
7432;SDS011;32233;49.500;7.764;2023-12-28T12:52:59;2.07;;;1.97;;
7432;SDS011;32233;49.500;7.764;2023-12-28T12:55:27;2.43;;;2.23;;
7432;SDS011;32233;49.500;7.764;2023-12-28T12:57:54;2.47;;;2.03;;
7432;SDS011;32233;49.500;7.764;2023-12-28T13:00:23;2.73;;;2.40;;
7432;SDS011;32233;49.500;7.764;2023-12-28T13:02:50;2.90;;;2.30;;
7432;SDS011;32233;49.500;7.764;2023-12-28T13:05:19;2.97;;;2.47;;
7432;SDS011;32233;49.500;7.764;2023-12-28T13:07:46;4.43;;;3.33;;
7432;SDS011;32233;49.500;7.764;2023-12-28T13:10:12;4.03;;;2.90;;
7432;SDS011;32233;49.500;7.764;2023-12-28T13:12:39;3.47;;;3.17;;
7432;SDS011;32233;49.500;7.764;2023-12-28T13:15:06;6.03;;;3.53;;
7432;SDS011;32233;49.500;7.764;2023-12-28T13:17:33;5.47;;;3.87;;
7432;SDS011;32233;49.500;7.764;2023-12-28T13:19:59;3.57;;;3.27;;
7432;SDS011;32233;49.500;7.764;2023-12-28T13:22:26;5.47;;;4.10;;
7432;SDS011;32233;49.500;7.764;2023-12-28T13:24:52;6.93;;;4.27;;
7432;SDS011;32233;49.500;7.764;2023-12-28T13:27:19;8.57;;;4.33;;
7432;SDS011;32233;49.500;7.764;2023-12-28T13:29:46;4.93;;;3.70;;
7432;SDS011;32233;49.500;7.764;2023-12-28T13:32:13;6.50;;;4.30;;
7432;SDS011;32233;49.500;7.764;2023-12-28T13:34:40;4.87;;;4.30;;
7432;SDS011;32233;49.500;7.764;2023-12-28T13:37:07;6.17;;;4.30;;
7432;SDS011;32233;49.500;7.764;2023-12-28T13:39:34;6.27;;;4.37;;
7432;SDS011;32233;49.500;7.764;2023-12-28T13:42:05;5.60;;;4.47;;
7432;SDS011;32233;49.500;7.764;2023-12-28T13:44:33;6.67;;;4.80;;
7432;SDS011;32233;49.500;7.764;2023-12-28T13:47:02;6.30;;;4.53;;
7432;SDS011;32233;49.500;7.764;2023-12-28T13:49:32;4.70;;;4.27;;
7432;SDS011;32233;49.500;7.764;2023-12-28T13:51:59;5.70;;;5.07;;
7432;SDS011;32233;49.500;7.764;2023-12-28T13:54:26;4.83;;;4.27;;
7432;SDS011;32233;49.500;7.764;2023-12-28T13:56:54;5.93;;;4.23;;
7432;SDS011;32233;49.500;7.764;2023-12-28T13:59:23;9.83;;;4.77;;
7432;SDS011;32233;49.500;7.764;2023-12-28T14:01:50;5.90;;;4.07;;
7432;SDS011;32233;49.500;7.764;2023-12-28T14:04:17;6.97;;;4.70;;
7432;SDS011;32233;49.500;7.764;2023-12-28T14:06:44;5.47;;;4.17;;
7432;SDS011;32233;49.500;7.764;2023-12-28T14:09:10;4.93;;;3.93;;
7432;SDS011;32233;49.500;7.764;2023-12-28T14:11:38;5.07;;;4.50;;
7432;SDS011;32233;49.500;7.764;2023-12-28T14:14:05;4.50;;;3.97;;
7432;SDS011;32233;49.500;7.764;2023-12-28T14:16:31;5.23;;;4.00;;
7432;SDS011;32233;49.500;7.764;2023-12-28T14:18:58;6.70;;;3.90;;
7432;SDS011;32233;49.500;7.764;2023-12-28T14:21:24;4.60;;;4.20;;
7432;SDS011;32233;49.500;7.764;2023-12-28T14:23:51;6.10;;;3.80;;
7432;SDS011;32233;49.500;7.764;2023-12-28T14:26:18;5.20;;;3.77;;
7432;SDS011;32233;49.500;7.764;2023-12-28T14:28:47;4.23;;;3.70;;
7432;SDS011;32233;49.500;7.764;2023-12-28T14:31:14;7.40;;;4.37;;
7432;SDS011;32233;49.500;7.764;2023-12-28T14:33:41;5.40;;;4.20;;
7432;SDS011;32233;49.500;7.764;2023-12-28T14:36:12;4.97;;;4.47;;
7432;SDS011;32233;49.500;7.764;2023-12-28T14:38:49;5.30;;;4.40;;
7432;SDS011;32233;49.500;7.764;2023-12-28T14:41:16;3.77;;;3.47;;
7432;SDS011;32233;49.500;7.764;2023-12-28T14:43:42;4.37;;;3.97;;
7432;SDS011;32233;49.500;7.764;2023-12-28T14:46:09;6.67;;;3.73;;
7432;SDS011;32233;49.500;7.764;2023-12-28T14:48:36;4.13;;;3.60;;
7432;SDS011;32233;49.500;7.764;2023-12-28T14:51:03;5.03;;;3.13;;
7432;SDS011;32233;49.500;7.764;2023-12-28T14:53:29;7.63;;;3.30;;
7432;SDS011;32233;49.500;7.764;2023-12-28T14:55:56;4.63;;;3.97;;
7432;SDS011;32233;49.500;7.764;2023-12-28T14:58:32;4.40;;;3.90;;
7432;SDS011;32233;49.500;7.764;2023-12-28T15:00:59;5.93;;;3.80;;
7432;SDS011;32233;49.500;7.764;2023-12-28T15:03:26;6.03;;;3.60;;
7432;SDS011;32233;49.500;7.764;2023-12-28T15:05:52;3.60;;;3.30;;
7432;SDS011;32233;49.500;7.764;2023-12-28T15:08:19;4.00;;;3.27;;
7432;SDS011;32233;49.500;7.764;2023-12-28T15:10:45;3.90;;;3.50;;
7432;SDS011;32233;49.500;7.764;2023-12-28T15:13:15;5.57;;;3.33;;
7432;SDS011;32233;49.500;7.764;2023-12-28T15:15:43;4.10;;;3.53;;
7432;SDS011;32233;49.500;7.764;2023-12-28T15:18:10;3.40;;;3.10;;
7432;SDS011;32233;49.500;7.764;2023-12-28T15:20:37;4.57;;;3.20;;